Arzew, Algeria

1:58 PM CET on December 20, 2014 (GMT +0100)
Es Senia | Change Station
CLOSE
Current Station
Airport
Location: Oran,
Elevation: 295 ft
Nearby Weather Stations

Elev 295 ft 35.63 °N, 0.60 °W | Updated 28 minutes ago

Clear
Clear
66 °F
Feels Like 66 °F
N
4
Wind Variable Wind from North

Today
High -- | Low -- °F
--% Chance of Precip.
Yesterday
High -- | Low -- °F
Precip. -- in
8:06 AM 5:50 PM
Waning Crescent, 3% visible
Pressure 30.39 in
Visibility -9999.0 miles
Clouds
Dew Point 55 °F
Humidity 68%
Rainfall 0.00 in
Snow Depth Not available.
UV Not available.
Pollen Not available.
Air Quality Not available.
Flu Activity Not available.
METAR DAOO 201230Z 35003KT CAVOK 19/13 Q1029

More Conditions Fewer Conditions

Pressure 30.39 in
Visibility -9999.0 miles
Clouds
Dew Point 55 °F
Humidity 68%
Rainfall 0.00 in
Snow Depth Not available.
UV Not available.
Pollen Not available.
Air Quality Not available.
Flu Activity Not available.
METAR DAOO 201230Z 35003KT CAVOK 19/13 Q1029

More Conditions Fewer Conditions

10-Day Weather Forecast

Almanac

Astronomy

Dec. 20, 2014 Rise Set
Actual Time
Civil Twilight
Nautical Twilight
Astronomical Twilight
Moon
Length of Visible Light
Length of Day
Tomorrow will be .
, % of the Moon is Illuminated

Today's Extremes

Country Highs Country Lows

Community

WunderPhotos

Upload Photos

1,779,163 photos uploaded!

WunderBlogs® & News

Nearby

Air Quality

  Air Quality AQ Index Pollutant
Not available.

Snow Depth

Station Depth Elevation

Earthquake Activity

City Distance Mag. Time & Date
Minimum magnitude displayed is 2.5.

Coastal Water Temperatures

Place Temperature

Nearby Weather Stations